Time;durP1;ratioP1;P1;durP2;ratioP2;P2;SDS_P1;SDS_P2;PMS_P1;PMS_P2;Temp;Humidity;BMP_temperature;BMP_pressure;BME280_temperature;BME280_humidity;BME280_pressure;Samples;Min_cycle;Max_cycle;Signal;HPM_P1;HPM_P2
2022/01/03 00:00:33;;;;;;;0.80;0.63;;;7.60;99.90;6.80;98519;;;;561820;253;24382;-81
2022/01/03 00:03:04;;;;;;;0.80;0.50;;;7.60;99.90;6.70;98521;;;;551350;259;24161;-82
2022/01/03 00:05:28;;;;;;;2.23;0.53;;;7.60;99.90;6.70;98520;;;;561349;256;24093;-83
2022/01/03 00:08:00;;;;;;;2.60;0.70;;;7.60;99.90;6.70;98527;;;;551248;256;24170;-81
2022/01/03 00:10:24;;;;;;;0.70;0.70;;;7.50;99.90;6.70;98524;;;;555489;258;24188;-80
2022/01/03 00:12:52;;;;;;;0.47;0.47;;;7.50;99.90;6.70;98523;;;;560979;256;24109;-81
2022/01/03 00:15:20;;;;;;;2.30;0.70;;;7.50;99.90;6.70;98534;;;;561166;256;24155;-80
2022/01/03 00:17:53;;;;;;;3.63;0.87;;;7.50;99.90;6.70;98524;;;;561150;256;24187;-81
2022/01/03 00:20:18;;;;;;;2.00;0.70;;;7.50;99.90;6.70;98525;;;;560747;256;24151;-80
2022/01/03 00:23:01;;;;;;;0.73;0.60;;;7.50;99.90;6.70;98526;;;;550565;261;24157;-81
2022/01/03 00:25:29;;;;;;;1.07;0.97;;;7.50;99.90;6.60;98522;;;;551464;260;24173;-81
2022/01/03 00:28:15;;;;;;;1.13;0.90;;;7.50;99.90;6.70;98521;;;;561086;256;24116;-82
2022/01/03 00:30:43;;;;;;;0.40;0.40;;;7.50;99.90;6.60;98531;;;;551004;261;24145;-81
2022/01/03 00:33:11;;;;;;;1.03;0.67;;;7.40;99.90;6.60;98536;;;;560891;256;24121;-81
2022/01/03 00:35:39;;;;;;;0.57;0.47;;;7.40;99.90;6.60;98539;;;;550605;261;24173;-81
2022/01/03 00:38:07;;;;;;;0.40;0.40;;;7.40;99.90;6.60;98538;;;;560922;256;24132;-82
2022/01/03 00:40:35;;;;;;;0.60;0.60;;;7.40;99.90;6.60;98543;;;;550087;261;24170;-81
2022/01/03 00:43:03;;;;;;;0.60;0.40;;;7.40;99.90;6.60;98543;;;;560946;256;24138;-81
2022/01/03 00:45:31;;;;;;;0.77;0.33;;;7.40;99.90;6.50;98547;;;;550703;261;24264;-82
2022/01/03 00:47:58;;;;;;;1.23;0.60;;;7.40;99.90;6.50;98542;;;;561001;256;24117;-82
2022/01/03 00:50:27;;;;;;;5.90;0.73;;;7.30;99.90;6.50;98549;;;;550693;261;24201;-82
2022/01/03 00:52:54;;;;;;;0.50;0.30;;;7.30;99.90;6.50;98542;;;;560740;256;24137;-81
2022/01/03 00:55:22;;;;;;;0.73;0.27;;;7.30;99.90;6.50;98548;;;;550789;261;24176;-81
2022/01/03 00:57:59;;;;;;;0.60;0.40;;;7.30;99.90;6.50;98554;;;;560776;256;24191;-80
2022/01/03 01:00:29;;;;;;;0.87;0.53;;;7.30;99.90;6.40;98552;;;;550656;261;24158;-80
2022/01/03 01:03:12;;;;;;;0.83;0.60;;;7.30;99.90;6.40;98550;;;;551222;258;24133;-80
2022/01/03 01:05:40;;;;;;;0.77;0.70;;;7.30;99.90;6.40;98557;;;;552308;260;24207;-79
2022/01/03 01:08:08;;;;;;;0.70;0.63;;;7.20;99.90;6.50;98551;;;;561852;252;24183;-80
2022/01/03 01:10:36;;;;;;;1.13;0.40;;;7.30;99.90;6.50;98552;;;;551749;260;24240;-80
2022/01/03 01:13:04;;;;;;;0.20;0.20;;;7.30;99.90;6.40;98561;;;;561788;256;24215;-81
2022/01/03 01:15:32;;;;;;;0.50;0.50;;;7.30;99.90;6.40;98563;;;;551417;260;24144;-81
2022/01/03 01:18:03;;;;;;;1.10;0.67;;;7.20;99.90;6.40;98570;;;;561686;256;24169;-80
2022/01/03 01:20:27;;;;;;;0.93;0.50;;;7.20;99.90;6.40;98575;;;;551280;260;24198;-80
2022/01/03 01:22:59;;;;;;;0.40;0.40;;;7.20;99.90;6.40;98574;;;;561477;256;24152;-80
2022/01/03 01:27:47;;;;;;;0.30;0.30;;;7.20;99.90;6.40;98573;;;;550755;261;24134;-80
2022/01/03 01:27:56;;;;;;;0.53;0.33;;;7.20;99.90;6.40;98572;;;;560008;256;24124;-80
2022/01/03 01:30:25;;;;;;;0.47;0.47;;;7.20;99.90;6.40;98566;;;;551173;261;24166;-81
2022/01/03 01:33:08;;;;;;;1.80;0.70;;;7.20;99.90;6.40;98577;;;;561444;256;24128;-80
2022/01/03 01:35:53;;;;;;;2.10;0.50;;;7.20;99.90;6.40;98559;;;;551547;255;24177;-80
2022/01/03 01:38:23;;;;;;;0.40;0.40;;;7.20;99.90;6.40;98570;;;;561274;256;24172;-81
2022/01/03 01:40:53;;;;;;;0.43;0.43;;;7.20;99.90;6.40;98578;;;;550602;261;24185;-81
2022/01/03 01:43:36;;;;;;;0.47;0.47;;;7.20;99.90;6.40;98579;;;;560923;256;24153;-80
2022/01/03 01:46:08;;;;;;;2.00;0.57;;;7.20;99.90;6.50;98579;;;;550646;261;24168;-81
2022/01/03 01:48:34;;;;;;;0.30;0.30;;;7.20;99.90;6.40;98583;;;;560480;256;24162;-81
2022/01/03 01:51:02;;;;;;;3.80;0.60;;;7.30;99.90;6.40;98577;;;;550566;261;24244;-81
2022/01/03 01:53:30;;;;;;;0.40;0.40;;;7.20;99.90;6.40;98583;;;;560952;256;24146;-81
2022/01/03 01:55:58;;;;;;;2.30;0.70;;;7.20;99.90;6.40;98592;;;;550703;261;24163;-81
2022/01/03 01:58:38;;;;;;;0.50;0.50;;;7.20;99.90;6.40;98584;;;;551062;261;24148;-81
2022/01/03 02:01:06;;;;;;;0.70;0.70;;;7.20;99.90;6.40;98592;;;;551146;260;24139;-80
2022/01/03 02:03:49;;;;;;;0.27;0.27;;;7.20;99.90;6.40;98601;;;;561261;253;24112;-80
2022/01/03 02:06:41;;;;;;;1.20;0.67;;;7.20;99.90;6.40;98601;;;;550713;261;24184;-80
2022/01/03 02:09:09;;;;;;;1.33;0.50;;;7.20;99.90;6.40;98608;;;;560693;256;24141;-81
2022/01/03 02:11:49;;;;;;;4.80;1.47;;;7.20;99.90;6.40;98609;;;;550574;261;24169;-81
2022/01/03 02:14:19;;;;;;;1.07;0.90;;;7.20;99.90;6.40;98613;;;;560833;254;25147;-81
2022/01/03 02:16:44;;;;;;;1.03;0.53;;;7.20;99.90;6.40;98614;;;;551640;260;24129;-81
2022/01/03 02:19:12;;;;;;;3.57;1.97;;;7.20;99.90;6.40;98619;;;;561858;255;24132;-82
2022/01/03 02:21:39;;;;;;;1.10;1.10;;;7.20;99.90;6.40;98616;;;;551323;260;24130;-82
2022/01/03 02:24:07;;;;;;;3.97;1.67;;;7.20;99.90;6.40;98618;;;;561452;256;24216;-80
2022/01/03 02:26:35;;;;;;;1.60;1.33;;;7.20;99.90;6.40;98618;;;;551175;260;24175;-81
2022/01/03 02:29:03;;;;;;;4.00;1.40;;;7.20;99.90;6.40;98617;;;;561786;256;24274;-80
2022/01/03 02:31:32;;;;;;;0.80;0.73;;;7.20;99.90;6.40;98621;;;;551226;260;24149;-80
2022/01/03 02:34:01;;;;;;;0.97;0.83;;;7.20;99.90;6.40;98616;;;;561186;256;24110;-81
2022/01/03 02:36:27;;;;;;;0.87;0.80;;;7.20;99.90;6.40;98621;;;;550997;261;24138;-80
2022/01/03 02:38:54;;;;;;;0.93;0.50;;;7.20;99.90;6.40;98626;;;;561116;256;24128;-81
2022/01/03 02:41:25;;;;;;;2.07;0.90;;;7.20;99.90;6.40;98633;;;;551017;261;24159;-81
2022/01/03 02:43:54;;;;;;;1.93;0.77;;;7.20;99.90;6.40;98624;;;;560990;256;24126;-80
2022/01/03 02:46:21;;;;;;;1.30;0.60;;;7.20;99.90;6.40;98628;;;;550795;254;24151;-82
2022/01/03 02:48:46;;;;;;;0.40;0.40;;;7.20;99.90;6.30;98626;;;;551554;257;24148;-81
2022/01/03 02:51:14;;;;;;;0.50;0.50;;;7.20;99.90;6.30;98628;;;;560986;256;24167;-81
2022/01/03 02:53:46;;;;;;;0.50;0.50;;;7.20;99.90;6.30;98632;;;;550795;261;24168;-81
2022/01/03 02:56:13;;;;;;;0.80;0.50;;;7.20;99.90;6.30;98631;;;;560644;250;24150;-81
2022/01/03 02:58:37;;;;;;;0.60;0.60;;;7.20;99.90;6.30;98637;;;;550829;260;24143;-80
2022/01/03 03:01:08;;;;;;;1.30;0.90;;;7.10;99.90;6.30;98636;;;;560979;256;24144;-80
2022/01/03 03:03:33;;;;;;;0.60;0.60;;;7.20;99.90;6.30;98634;;;;550699;261;24130;-81
2022/01/03 03:06:01;;;;;;;4.03;0.97;;;7.20;99.90;6.30;98641;;;;561253;256;24187;-80
2022/01/03 03:08:29;;;;;;;1.30;1.20;;;7.20;99.90;6.30;98637;;;;550708;257;24209;-80
2022/01/03 03:10:57;;;;;;;1.33;1.10;;;7.20;99.90;6.30;98641;;;;561011;256;24121;-81
2022/01/03 03:13:25;;;;;;;1.07;1.00;;;7.20;99.90;6.30;98647;;;;550693;261;24184;-81
2022/01/03 03:15:52;;;;;;;3.13;1.10;;;7.20;99.90;6.30;98636;;;;560813;256;24110;-81
2022/01/03 03:18:21;;;;;;;2.27;1.10;;;7.20;99.90;6.30;98642;;;;550759;261;24212;-81
2022/01/03 03:20:49;;;;;;;1.10;1.10;;;7.20;99.90;6.30;98647;;;;560789;256;24156;-79
2022/01/03 03:23:16;;;;;;;1.90;1.80;;;7.20;99.90;6.30;98646;;;;550756;261;24146;-79
2022/01/03 03:25:44;;;;;;;3.37;2.53;;;7.20;99.90;6.30;98649;;;;560904;256;24117;-81
2022/01/03 03:28:12;;;;;;;2.87;2.13;;;7.20;99.90;6.40;98649;;;;552013;259;24248;-79
2022/01/03 03:30:46;;;;;;;8.03;2.97;;;7.20;99.90;6.40;98652;;;;561813;255;24163;-79
2022/01/03 03:33:14;;;;;;;6.53;3.53;;;7.20;99.90;6.40;98654;;;;551323;254;24250;-79
2022/01/03 03:35:42;;;;;;;4.67;3.60;;;7.20;99.90;6.40;98652;;;;561547;256;24120;-79
2022/01/03 03:38:10;;;;;;;7.43;2.40;;;7.20;99.90;6.40;98645;;;;551049;260;24195;-79
2022/01/03 03:40:38;;;;;;;9.33;4.23;;;7.20;99.90;6.40;98659;;;;561248;256;24160;-80
2022/01/03 03:43:05;;;;;;;6.37;4.07;;;7.20;99.90;6.30;98653;;;;551123;260;24146;-80
2022/01/03 03:45:34;;;;;;;4.17;2.70;;;7.20;99.90;6.40;98659;;;;561097;256;24166;-80
2022/01/03 03:48:01;;;;;;;7.33;3.53;;;7.20;99.90;6.30;98667;;;;550842;261;24165;-80
2022/01/03 03:50:29;;;;;;;11.03;4.03;;;7.20;99.90;6.40;98662;;;;561021;256;24231;-80
2022/01/03 03:52:57;;;;;;;3.53;2.57;;;7.20;99.90;6.40;98671;;;;550992;261;24142;-79
2022/01/03 03:55:25;;;;;;;4.90;3.30;;;7.20;99.90;6.30;98662;;;;561056;256;24134;-80
2022/01/03 03:57:53;;;;;;;6.70;3.87;;;7.20;99.90;6.30;98664;;;;551042;261;24146;-79
2022/01/03 04:00:20;;;;;;;8.70;4.27;;;7.20;99.90;6.30;98661;;;;561147;256;24164;-78
2022/01/03 04:02:48;;;;;;;8.93;4.37;;;7.20;99.90;6.30;98664;;;;550707;261;24139;-79
2022/01/03 04:05:19;;;;;;;7.33;4.13;;;7.20;99.90;6.30;98665;;;;561257;256;24124;-79
2022/01/03 04:07:44;;;;;;;12.07;4.23;;;7.20;99.90;6.30;98664;;;;550641;257;24174;-80
2022/01/03 04:10:16;;;;;;;5.13;3.90;;;7.20;99.90;6.30;98662;;;;555563;258;24222;-78
2022/01/03 04:12:40;;;;;;;6.63;4.03;;;7.20;99.90;6.30;98657;;;;560985;256;24153;-80
2022/01/03 04:15:08;;;;;;;14.40;5.23;;;7.10;99.90;6.30;98660;;;;560889;256;24176;-82
2022/01/03 04:17:36;;;;;;;5.27;3.53;;;7.20;99.90;6.30;98655;;;;551004;261;24203;-82
2022/01/03 04:20:04;;;;;;;7.73;3.47;;;7.10;99.90;6.30;98664;;;;551530;260;24184;-80
2022/01/03 04:22:32;;;;;;;6.17;3.53;;;7.10;99.90;6.30;98656;;;;561008;256;24128;-80
2022/01/03 04:25:00;;;;;;;7.33;3.40;;;7.10;99.90;6.30;98655;;;;550994;261;24169;-80
2022/01/03 04:27:28;;;;;;;10.33;3.63;;;7.10;99.90;6.30;98658;;;;561227;256;24116;-81
2022/01/03 04:29:56;;;;;;;6.87;3.60;;;7.20;99.90;6.30;98652;;;;551005;261;24122;-81
2022/01/03 04:32:24;;;;;;;10.07;3.30;;;7.20;99.90;6.30;98663;;;;561259;256;24109;-81
2022/01/03 04:34:51;;;;;;;6.97;2.83;;;7.20;99.90;6.30;98670;;;;551038;261;24157;-81
2022/01/03 04:37:19;;;;;;;14.80;3.37;;;7.20;99.90;6.30;98662;;;;561155;256;24135;-82
2022/01/03 04:39:47;;;;;;;7.87;3.03;;;7.20;99.90;6.30;98656;;;;552390;259;24180;-82
2022/01/03 04:42:15;;;;;;;10.80;3.13;;;7.20;99.90;6.30;98656;;;;562171;255;24138;-81
2022/01/03 04:44:43;;;;;;;10.87;3.37;;;7.20;99.90;6.30;98658;;;;551764;260;24232;-82
2022/01/03 04:47:11;;;;;;;6.63;2.00;;;7.20;99.90;6.30;98653;;;;561906;256;24152;-82
2022/01/03 04:49:39;;;;;;;5.87;2.50;;;7.20;99.90;6.30;98655;;;;550699;260;24177;-81
2022/01/03 04:52:07;;;;;;;5.70;3.17;;;7.20;99.90;6.30;98656;;;;561046;256;24155;-81
2022/01/03 04:54:35;;;;;;;3.43;2.60;;;7.20;99.90;6.30;98652;;;;550638;260;24122;-81
2022/01/03 04:57:03;;;;;;;4.33;2.20;;;7.20;99.90;6.30;98655;;;;560998;256;24150;-81
2022/01/03 04:59:31;;;;;;;5.07;2.50;;;7.20;99.90;6.30;98647;;;;542560;261;24160;-81
2022/01/03 05:02:03;;;;;;;9.43;2.87;;;7.20;99.90;6.30;98648;;;;560524;256;24109;-82
2022/01/03 05:04:28;;;;;;;8.33;2.00;;;7.10;99.90;6.30;98657;;;;550571;261;24193;-81
2022/01/03 05:06:55;;;;;;;11.43;2.80;;;7.10;99.90;6.30;98649;;;;560822;252;24122;-81
2022/01/03 05:09:23;;;;;;;9.83;2.70;;;7.10;99.90;6.30;98653;;;;550455;261;24177;-80
2022/01/03 05:11:51;;;;;;;5.53;2.47;;;7.10;99.90;6.20;98650;;;;560600;256;24133;-81
2022/01/03 05:14:19;;;;;;;7.53;2.80;;;7.10;99.90;6.20;98654;;;;550241;261;24130;-81
2022/01/03 05:16:47;;;;;;;3.70;2.10;;;7.10;99.90;6.20;98656;;;;560664;256;24090;-81
2022/01/03 05:19:15;;;;;;;4.23;2.23;;;7.10;99.90;6.20;98656;;;;550537;261;24248;-82
2022/01/03 05:21:44;;;;;;;4.40;2.33;;;7.10;99.90;6.20;98656;;;;560671;256;24176;-82
2022/01/03 05:24:11;;;;;;;5.30;2.10;;;7.00;99.90;6.20;98656;;;;550513;261;24157;-82
2022/01/03 05:26:39;;;;;;;6.17;2.20;;;7.10;99.90;6.20;98666;;;;560721;256;24101;-82
2022/01/03 05:29:06;;;;;;;5.37;1.87;;;7.00;99.90;6.20;98654;;;;550529;261;25219;-82
2022/01/03 05:31:34;;;;;;;8.80;1.90;;;7.00;99.90;6.20;98668;;;;560673;256;24112;-82
2022/01/03 05:34:02;;;;;;;5.70;2.40;;;7.00;99.90;6.20;98668;;;;550446;261;24154;-81
2022/01/03 05:36:30;;;;;;;5.53;2.17;;;7.00;99.90;6.20;98671;;;;560629;256;24152;-80
2022/01/03 05:38:58;;;;;;;6.90;2.47;;;7.00;99.90;6.20;98665;;;;550482;261;24156;-82
2022/01/03 05:41:27;;;;;;;6.90;2.37;;;7.00;99.90;6.20;98672;;;;560641;256;24085;-80
2022/01/03 05:43:56;;;;;;;6.03;2.07;;;7.00;99.90;6.20;98670;;;;550407;261;24114;-81
2022/01/03 05:46:23;;;;;;;8.47;2.07;;;7.00;99.90;6.20;98672;;;;560608;256;24124;-82
2022/01/03 05:48:50;;;;;;;6.20;2.67;;;7.00;99.90;6.20;98676;;;;550468;261;24122;-82
2022/01/03 05:51:18;;;;;;;9.97;2.73;;;7.00;99.90;6.20;98679;;;;551868;259;24161;-82
2022/01/03 05:53:47;;;;;;;11.07;3.03;;;7.10;99.90;6.20;98687;;;;550241;260;24133;-82
2022/01/03 05:56:15;;;;;;;10.83;3.77;;;7.00;99.90;6.20;98682;;;;561359;256;24222;-81
2022/01/03 05:58:43;;;;;;;9.27;3.37;;;7.10;99.90;6.20;98688;;;;551095;260;24173;-81
2022/01/03 06:01:11;;;;;;;18.23;3.77;;;7.10;99.90;6.20;98688;;;;561083;256;24143;-80
2022/01/03 06:03:40;;;;;;;6.17;2.83;;;7.00;99.90;6.20;98690;;;;550690;260;24157;-82
2022/01/03 06:06:19;;;;;;;9.73;2.70;;;7.10;99.90;6.20;98692;;;;560745;256;24114;-82
2022/01/03 06:08:35;;;;;;;14.27;3.17;;;7.00;99.90;6.10;98683;;;;549489;257;24176;-82
2022/01/03 06:11:03;;;;;;;10.93;3.07;;;7.00;99.90;6.20;98683;;;;560503;256;24100;-83
2022/01/03 06:13:31;;;;;;;9.07;2.63;;;7.00;99.90;6.10;98680;;;;550313;261;24197;-81
2022/01/03 06:15:59;;;;;;;9.17;2.90;;;7.00;99.90;6.10;98692;;;;560559;256;24149;-81
2022/01/03 06:18:27;;;;;;;7.43;2.73;;;7.00;99.90;6.10;98700;;;;550212;261;24241;-82
2022/01/03 06:20:55;;;;;;;5.53;3.30;;;6.90;99.90;6.10;98700;;;;560658;256;24156;-82
2022/01/03 06:23:23;;;;;;;5.00;2.77;;;6.90;99.90;6.10;98701;;;;550322;261;24150;-82
2022/01/03 06:25:51;;;;;;;6.07;2.70;;;6.90;99.90;6.00;98701;;;;560352;256;24109;-82
2022/01/03 06:28:18;;;;;;;10.60;3.63;;;6.90;99.90;6.00;98699;;;;550140;261;24141;-81
2022/01/03 06:30:46;;;;;;;7.77;4.47;;;6.90;99.90;6.00;98710;;;;560129;256;25177;-82
2022/01/03 06:33:14;;;;;;;5.90;3.40;;;6.90;99.90;6.00;98700;;;;550466;261;24157;-83
2022/01/03 06:35:42;;;;;;;8.37;3.17;;;6.90;99.90;6.00;98703;;;;560688;256;24126;-81
2022/01/03 06:38:10;;;;;;;11.73;5.28;;;6.90;99.90;6.00;98704;;;;545718;261;35555;-82
2022/01/03 06:40:38;;;;;;;8.23;3.80;;;6.80;99.90;5.90;98712;;;;560690;256;25166;-81
2022/01/03 06:43:06;;;;;;;7.67;3.50;;;6.80;99.90;5.90;98710;;;;550541;261;24163;-81
2022/01/03 06:45:34;;;;;;;6.60;3.60;;;6.80;99.90;5.90;98702;;;;563859;243;24168;-77
2022/01/03 06:48:02;;;;;;;6.37;3.03;;;6.80;99.90;5.90;98702;;;;586170;243;24115;-76
2022/01/03 06:50:31;;;;;;;15.33;4.00;;;6.80;99.90;5.90;98698;;;;579540;241;24072;-76
2022/01/03 06:53:01;;;;;;;14.70;4.17;;;6.70;99.90;5.90;98699;;;;579359;247;24114;-76
2022/01/03 06:55:26;;;;;;;10.37;3.97;;;6.80;99.90;5.90;98701;;;;560831;252;24163;-76
2022/01/03 06:57:54;;;;;;;7.60;4.07;;;6.70;99.90;5.80;98708;;;;570731;247;25109;-76
2022/01/03 07:00:22;;;;;;;10.00;3.10;;;6.70;99.90;5.80;98705;;;;570407;247;24153;-76
2022/01/03 07:02:50;;;;;;;6.03;3.53;;;6.70;99.90;5.70;98713;;;;581034;246;24132;-75
2022/01/03 07:05:18;;;;;;;8.63;3.27;;;6.60;99.90;5.70;98699;;;;580884;247;24184;-77
2022/01/03 07:07:46;;;;;;;5.77;3.20;;;6.60;99.90;5.60;98706;;;;577884;247;24074;-77
2022/01/03 07:10:17;;;;;;;8.10;3.90;;;6.50;99.90;5.60;98692;;;;572207;246;24084;-77
2022/01/03 07:12:42;;;;;;;7.17;4.87;;;6.50;99.90;5.50;98695;;;;564641;253;24092;-76
2022/01/03 07:20:46;;;;;;;10.07;3.10;;;6.40;99.90;5.40;98700;;;;560435;253;24083;-77
2022/01/03 07:23:10;;;;;;;12.27;4.43;;;6.30;99.90;5.50;98700;;;;560349;252;24213;-77
2022/01/03 07:25:38;;;;;;;26.77;10.50;;;6.30;99.90;5.50;98689;;;;560537;253;24124;-76
2022/01/03 07:28:09;;;;;;;20.10;7.40;;;6.40;99.90;5.50;98682;;;;560597;253;24098;-76
2022/01/03 07:30:34;;;;;;;6.67;4.53;;;6.40;99.90;5.50;98678;;;;553134;253;24101;-77
2022/01/03 07:33:02;;;;;;;7.97;4.30;;;6.40;99.90;5.50;98687;;;;564670;253;24063;-77
2022/01/03 07:35:29;;;;;;;4.73;3.40;;;6.40;99.90;5.50;98698;;;;564605;252;24234;-76
2022/01/03 07:37:58;;;;;;;13.23;3.77;;;6.40;99.90;5.40;98707;;;;564242;252;24119;-77
2022/01/03 07:40:25;;;;;;;11.20;4.37;;;6.40;99.90;5.50;98706;;;;564307;253;24129;-77
2022/01/03 07:42:53;;;;;;;10.77;3.80;;;6.40;99.90;5.50;98704;;;;553178;253;24072;-77
2022/01/03 07:45:25;;;;;;;7.23;3.20;;;6.40;99.90;5.50;98709;;;;564388;253;24155;-78
2022/01/03 07:47:50;;;;;;;10.00;3.97;;;6.50;99.90;5.50;98704;;;;565387;247;24088;-74
2022/01/03 07:50:18;;;;;;;11.50;3.97;;;6.40;99.90;5.60;98700;;;;564213;253;24088;-76
2022/01/03 07:52:46;;;;;;;8.97;3.20;;;6.50;99.90;5.60;98709;;;;564422;247;24149;-75
2022/01/03 07:55:16;;;;;;;4.97;2.67;;;6.50;99.90;5.60;98697;;;;564306;253;24091;-76
2022/01/03 07:57:41;;;;;;;4.93;2.80;;;6.50;99.90;5.60;98698;;;;555987;253;24106;-77
2022/01/03 08:00:10;;;;;;;6.30;2.53;;;6.50;99.90;5.60;98707;;;;564296;253;24089;-76
2022/01/03 08:02:41;;;;;;;5.83;2.90;;;6.50;99.90;5.70;98713;;;;560472;249;24138;-76
2022/01/03 08:05:06;;;;;;;8.00;3.10;;;6.50;99.90;5.70;98711;;;;560118;253;24073;-76
2022/01/03 08:07:34;;;;;;;4.03;2.63;;;6.60;99.90;5.70;98705;;;;561296;248;24193;-76
2022/01/03 08:10:02;;;;;;;9.47;3.07;;;6.60;99.90;5.60;98708;;;;555199;254;24186;-77
2022/01/03 08:12:31;;;;;;;8.33;3.43;;;6.60;99.90;5.70;98708;;;;560037;248;24147;-77
2022/01/03 08:14:59;;;;;;;4.77;3.13;;;6.60;99.90;5.70;98713;;;;556458;254;24074;-77
2022/01/03 08:17:28;;;;;;;9.23;3.10;;;6.60;99.90;5.70;98716;;;;558119;257;24162;-77
2022/01/03 08:19:55;;;;;;;5.90;2.97;;;6.60;99.90;5.70;98715;;;;555960;254;24092;-76
2022/01/03 08:22:23;;;;;;;3.70;2.80;;;6.60;99.90;5.70;98720;;;;547823;255;24151;-76
2022/01/03 08:24:52;;;;;;;6.60;3.07;;;6.70;99.90;5.70;98714;;;;561831;253;24103;-77
2022/01/03 08:27:20;;;;;;;3.97;2.90;;;6.60;99.90;5.70;98708;;;;563896;252;24095;-76
2022/01/03 08:29:48;;;;;;;8.67;3.73;;;6.70;99.90;5.80;98720;;;;563763;252;24086;-75
2022/01/03 08:32:16;;;;;;;11.37;5.00;;;6.70;99.90;5.80;98717;;;;549346;257;24205;-75
2022/01/03 08:34:44;;;;;;;9.47;4.07;;;6.70;99.90;5.80;98722;;;;561550;253;24134;-76
2022/01/03 08:37:12;;;;;;;7.93;4.63;;;6.70;99.90;5.80;98724;;;;563405;253;24085;-77
2022/01/03 08:39:40;;;;;;;6.10;4.17;;;6.70;99.90;5.80;98724;;;;557265;257;24198;-76
2022/01/03 08:42:09;;;;;;;9.50;4.07;;;6.80;99.90;5.90;98726;;;;561309;254;24055;-77
2022/01/03 08:44:37;;;;;;;11.73;4.63;;;6.80;99.90;5.90;98726;;;;563444;253;24181;-76
2022/01/03 08:47:08;;;;;;;6.43;3.63;;;6.90;99.90;6.00;98735;;;;563383;253;24098;-75
2022/01/03 08:49:33;;;;;;;6.90;3.73;;;6.90;99.90;6.00;98743;;;;559148;253;24079;-75
2022/01/03 08:52:01;;;;;;;11.93;3.53;;;6.90;99.90;6.00;98748;;;;556974;257;24201;-76
2022/01/03 08:54:29;;;;;;;10.33;4.03;;;6.90;99.90;6.00;98740;;;;560907;252;24129;-75
2022/01/03 08:56:57;;;;;;;8.13;3.83;;;6.90;99.90;6.00;98741;;;;563224;253;24061;-77
2022/01/03 08:59:25;;;;;;;7.33;4.00;;;7.00;99.90;6.10;98750;;;;556907;257;24189;-75
2022/01/03 09:01:53;;;;;;;8.53;4.40;;;7.00;99.90;6.10;98741;;;;560979;251;24137;-76
2022/01/03 09:04:21;;;;;;;6.87;3.50;;;7.00;99.90;6.20;98746;;;;563065;253;24066;-76
2022/01/03 09:06:50;;;;;;;9.33;3.33;;;7.10;99.90;6.20;98749;;;;557223;257;24165;-76
2022/01/03 09:09:17;;;;;;;11.70;4.13;;;7.10;99.90;6.20;98746;;;;561268;254;24084;-76
2022/01/03 09:11:44;;;;;;;11.40;4.40;;;7.10;99.90;6.20;98749;;;;557179;257;24136;-76
2022/01/03 09:14:12;;;;;;;8.00;4.20;;;7.10;99.90;6.20;98758;;;;561374;253;24112;-76
2022/01/03 09:16:40;;;;;;;11.70;4.20;;;7.10;99.90;6.30;98761;;;;557223;257;24163;-77
2022/01/03 09:19:08;;;;;;;5.83;3.20;;;7.20;99.90;6.30;98757;;;;561377;253;24128;-76
2022/01/03 09:21:37;;;;;;;8.50;3.77;;;7.30;99.90;6.40;98763;;;;563374;253;24063;-75
2022/01/03 09:24:29;;;;;;;8.10;3.93;;;7.30;99.90;6.50;98756;;;;547361;255;24156;-76
2022/01/03 09:29:37;;;;;;;5.40;2.70;;;7.40;99.90;6.50;98757;;;;556057;254;24070;-76
2022/01/03 09:32:06;;;;;;;4.17;3.17;;;7.40;99.90;6.50;98755;;;;557628;256;24176;-77
2022/01/03 09:34:33;;;;;;;4.50;2.77;;;7.50;99.90;6.60;98756;;;;555426;251;24086;-76
2022/01/03 09:37:01;;;;;;;4.90;2.50;;;7.50;99.90;6.60;98753;;;;563701;252;24135;-76
2022/01/03 09:39:29;;;;;;;3.83;2.20;;;7.50;99.90;6.60;98754;;;;557129;252;24194;-75
2022/01/03 09:41:58;;;;;;;2.70;2.20;;;7.60;99.90;6.70;98750;;;;561571;254;24092;-75
2022/01/03 09:44:31;;;;;;;5.93;2.13;;;7.60;99.90;6.70;98754;;;;554891;254;24105;-75
2022/01/03 09:47:02;;;;;;;3.27;1.80;;;7.60;99.90;6.70;98745;;;;549048;257;24159;-76
2022/01/03 09:49:33;;;;;;;5.27;2.27;;;7.60;99.90;6.70;98746;;;;554948;253;24090;-76
2022/01/03 09:52:01;;;;;;;3.73;2.07;;;7.70;99.90;6.80;98741;;;;555079;254;24133;-76
2022/01/03 09:54:29;;;;;;;4.17;1.90;;;7.70;99.90;6.80;98743;;;;549085;256;24212;-77
2022/01/03 09:56:57;;;;;;;8.17;2.77;;;7.70;99.90;6.90;98758;;;;561396;251;24087;-78
2022/01/03 09:59:24;;;;;;;4.00;2.50;;;7.80;99.90;6.90;98749;;;;555008;254;24090;-77
2022/01/03 10:01:53;;;;;;;4.30;2.43;;;7.80;99.90;6.90;98749;;;;563150;253;24107;-75
2022/01/03 10:04:21;;;;;;;5.17;2.50;;;7.90;99.90;7.00;98754;;;;557034;257;24233;-76
2022/01/03 10:06:52;;;;;;;5.07;2.60;;;7.90;99.90;7.00;98746;;;;561363;254;24067;-76
2022/01/03 10:09:24;;;;;;;4.30;3.10;;;8.00;99.90;7.10;98755;;;;554682;254;24134;-75
2022/01/03 10:11:49;;;;;;;6.97;3.40;;;8.00;99.90;7.10;98747;;;;548253;257;24165;-76
2022/01/03 10:14:17;;;;;;;5.80;3.10;;;8.00;99.90;7.20;98755;;;;545382;259;24203;-76
2022/01/03 10:16:49;;;;;;;3.73;3.07;;;8.10;99.90;7.20;98750;;;;545159;257;24185;-76
2022/01/03 10:19:16;;;;;;;8.07;3.00;;;8.10;99.90;7.20;98752;;;;566435;249;24090;-77
2022/01/03 10:21:48;;;;;;;7.37;3.33;;;8.20;99.90;7.20;98758;;;;560142;250;24108;-76
2022/01/03 10:24:16;;;;;;;6.03;3.30;;;8.20;99.90;7.20;98745;;;;554944;254;24124;-76
2022/01/03 10:26:46;;;;;;;7.97;3.37;;;8.20;99.90;7.20;98755;;;;559387;249;25191;-75
2022/01/03 10:29:20;;;;;;;8.97;3.33;;;8.20;99.90;7.20;98749;;;;558764;254;24125;-75
2022/01/03 10:31:50;;;;;;;5.47;3.00;;;8.20;99.90;7.20;98757;;;;555097;254;24114;-76
2022/01/03 10:34:21;;;;;;;7.77;3.27;;;8.20;99.90;7.30;98760;;;;554875;253;24130;-75
2022/01/03 10:36:47;;;;;;;5.43;2.60;;;8.20;99.90;7.30;98751;;;;555818;251;24078;-76
2022/01/03 10:39:20;;;;;;;3.47;2.97;;;8.30;99.90;7.40;98757;;;;558950;251;24184;-76
2022/01/03 10:41:48;;;;;;;10.07;3.40;;;8.30;99.90;7.50;98755;;;;555557;253;24266;-75
2022/01/03 10:44:37;;;;;;;7.93;3.30;;;8.40;99.90;7.50;98757;;;;560077;254;24184;-75
2022/01/03 10:47:07;;;;;;;11.73;3.90;;;8.50;99.90;7.60;98757;;;;555638;254;24184;-77
2022/01/03 10:49:36;;;;;;;7.07;3.83;;;8.50;99.90;7.70;98750;;;;551769;254;24091;-76
2022/01/03 10:52:22;;;;;;;10.03;3.87;;;8.80;99.90;7.90;98757;;;;568203;248;24111;-76
2022/01/03 10:55:14;;;;;;;10.47;3.83;;;8.80;99.90;8.00;98752;;;;545625;254;24154;-78
2022/01/03 10:57:59;;;;;;;10.80;4.13;;;8.90;99.90;8.20;98748;;;;563240;250;24126;-76
2022/01/03 11:00:39;;;;;;;9.17;3.27;;;9.10;99.90;8.40;98748;;;;547673;257;24263;-76
2022/01/03 11:03:25;;;;;;;8.07;4.50;;;9.30;99.90;8.40;98744;;;;558382;253;35109;-76
2022/01/03 11:05:47;;;;;;;8.45;5.00;;;9.30;99.90;8.50;98738;;;;544340;256;35755;-76
2022/01/03 11:10:58;;;;;;;7.90;4.30;;;9.60;99.90;8.70;98737;;;;549345;257;25221;-76
2022/01/03 11:13:26;;;;;;;8.47;4.60;;;9.60;99.90;8.80;98735;;;;548740;254;24114;-76
2022/01/03 11:15:57;;;;;;;9.50;3.60;;;9.70;99.90;8.90;98740;;;;563540;253;24114;-76
2022/01/03 11:18:27;;;;;;;8.03;3.93;;;9.80;99.90;9.10;98737;;;;549208;257;24141;-75
2022/01/03 11:21:24;;;;;;;13.10;3.47;;;10.00;99.90;9.20;98735;;;;548402;254;24087;-76
2022/01/03 11:23:59;;;;;;;9.70;5.07;;;10.10;99.90;9.00;98737;;;;553692;254;24201;-77
2022/01/03 11:26:30;;;;;;;12.77;4.83;;;10.00;99.90;9.00;98720;;;;555126;254;25133;-77
2022/01/03 11:28:55;;;;;;;10.17;5.03;;;9.90;99.90;8.90;98724;;;;555098;249;24096;-77
2022/01/03 11:31:24;;;;;;;12.57;5.93;;;9.80;99.90;8.80;98718;;;;553297;257;24275;-75
2022/01/03 11:33:52;;;;;;;8.13;5.13;;;9.80;99.90;8.80;98715;;;;554797;254;25119;-76
2022/01/03 11:36:22;;;;;;;17.27;8.20;;;9.80;99.90;8.90;98721;;;;544204;257;35686;-76
2022/01/03 11:38:51;;;;;;;7.37;4.57;;;9.80;99.90;8.80;98716;;;;554332;254;24138;-76
2022/01/03 11:41:16;;;;;;;4.83;3.87;;;9.80;99.90;8.80;98713;;;;553316;254;24138;-76
2022/01/03 11:43:44;;;;;;;9.00;4.00;;;9.80;99.90;8.90;98716;;;;556876;257;24220;-76
2022/01/03 11:46:12;;;;;;;12.80;4.07;;;9.70;99.90;8.90;98718;;;;555181;254;24063;-76
2022/01/03 11:48:40;;;;;;;5.70;3.80;;;9.80;99.90;9.00;98722;;;;558078;256;24223;-77
2022/01/03 11:51:08;;;;;;;10.30;4.17;;;9.80;99.90;9.00;98722;;;;555894;254;24172;-77